createdAt,value
2019-04-03T00:04:02.659Z,41.10
2019-04-03T00:09:08.906Z,41.30
2019-04-03T00:14:15.515Z,41.70
2019-04-03T00:19:20.334Z,41.50
2019-04-03T00:24:25.177Z,41.50
2019-04-03T00:29:30.065Z,41.50
2019-04-03T00:34:35.168Z,41.70
2019-04-03T00:39:40.225Z,41.60
2019-04-03T00:44:45.196Z,42.10
2019-04-03T00:49:50.014Z,41.70
2019-04-03T00:54:56.498Z,42.10
2019-04-03T01:00:01.884Z,42.10
2019-04-03T01:05:09.771Z,42.00
2019-04-03T01:10:14.642Z,42.10
2019-04-03T01:15:19.791Z,42.70
2019-04-03T01:20:24.840Z,42.70
2019-04-03T01:25:29.892Z,42.70
2019-04-03T01:30:34.712Z,43.30
2019-04-03T01:35:39.681Z,43.20
2019-04-03T01:40:44.502Z,43.20
2019-04-03T01:45:49.484Z,43.60
2019-04-03T01:50:54.271Z,43.40
2019-04-03T01:55:59.035Z,43.90
2019-04-03T02:01:04.548Z,43.50
2019-04-03T02:06:09.362Z,43.80
2019-04-03T02:11:14.412Z,44.00
2019-04-03T02:16:19.306Z,44.10
2019-04-03T02:21:24.208Z,44.20
2019-04-03T02:26:30.661Z,43.80
2019-04-03T02:31:35.512Z,44.00
2019-04-03T02:36:43.203Z,44.10
2019-04-03T02:41:46.551Z,44.30
2019-04-03T02:46:51.267Z,44.20
2019-04-03T02:51:56.111Z,44.30
2019-04-03T02:57:01.374Z,44.40
2019-04-03T03:02:06.441Z,44.50
2019-04-03T03:07:11.264Z,44.40
2019-04-03T03:12:16.315Z,44.80
2019-04-03T03:17:23.343Z,44.40
2019-04-03T03:22:29.170Z,44.80
2019-04-03T03:27:35.067Z,44.80
2019-04-03T03:32:41.801Z,45.00
2019-04-03T03:37:47.608Z,44.90
2019-04-03T03:42:52.461Z,44.60
2019-04-03T03:47:57.929Z,44.80
2019-04-03T03:53:03.106Z,44.70
2019-04-03T03:58:11.589Z,44.80
2019-04-03T04:03:16.007Z,45.10
2019-04-03T04:08:21.298Z,44.90
2019-04-03T04:13:26.965Z,44.70
2019-04-03T04:18:32.662Z,44.90
2019-04-03T04:23:37.675Z,44.80
2019-04-03T04:28:43.216Z,45.00
2019-04-03T04:33:48.382Z,44.70
2019-04-03T04:38:53.434Z,44.90
2019-04-03T04:43:58.259Z,44.60
2019-04-03T04:49:02.998Z,45.20
2019-04-03T04:54:07.743Z,44.70
2019-04-03T04:59:13.577Z,44.70
2019-04-03T05:04:19.625Z,44.50
2019-04-03T05:09:24.470Z,44.50
2019-04-03T05:14:29.708Z,44.40
2019-04-03T05:19:34.442Z,44.00
2019-04-03T05:24:39.186Z,44.10
2019-04-03T05:29:44.033Z,42.90
2019-04-03T05:34:49.110Z,42.00
2019-04-03T05:39:55.617Z,41.30
2019-04-03T05:45:00.313Z,40.70
2019-04-03T05:50:06.889Z,40.70
2019-04-03T05:55:11.948Z,40.40
2019-04-03T06:00:17.212Z,40.00
2019-04-03T06:05:22.344Z,39.50
2019-04-03T06:10:28.269Z,40.30
2019-04-03T06:15:33.678Z,39.70
2019-04-03T06:20:38.562Z,40.20
2019-04-03T06:25:43.339Z,39.10
2019-04-03T06:30:48.421Z,38.90
2019-04-03T06:35:53.330Z,38.60
2019-04-03T06:40:58.555Z,38.50
2019-04-03T06:46:04.704Z,38.60
2019-04-03T06:51:09.939Z,39.80
2019-04-03T06:56:14.759Z,39.40
2019-04-03T07:01:20.542Z,39.90
2019-04-03T07:06:26.622Z,40.20
2019-04-03T07:11:31.343Z,38.60
2019-04-03T07:16:38.625Z,39.10
2019-04-03T07:21:43.806Z,39.60
2019-04-03T07:26:48.666Z,39.80
2019-04-03T07:31:55.236Z,39.10
2019-04-03T07:36:59.990Z,39.10
2019-04-03T07:42:05.039Z,40.40
2019-04-03T07:47:10.399Z,39.70
2019-04-03T07:52:16.720Z,40.40
2019-04-03T07:57:21.722Z,39.70
2019-04-03T08:02:26.898Z,38.90
2019-04-03T08:07:31.820Z,39.90
2019-04-03T08:12:36.562Z,39.40
2019-04-03T08:17:41.304Z,39.60
2019-04-03T08:22:46.353Z,40.20
2019-04-03T08:27:51.096Z,38.50
2019-04-03T08:32:56.018Z,39.50
2019-04-03T08:38:01.195Z,38.70
2019-04-03T08:43:06.244Z,39.00
2019-04-03T08:48:10.987Z,38.30
2019-04-03T08:53:15.727Z,38.30
2019-04-03T08:58:21.521Z,39.70
2019-04-03T09:03:28.366Z,38.40
2019-04-03T09:08:33.336Z,38.40
2019-04-03T09:13:38.080Z,38.10
2019-04-03T09:18:44.164Z,38.70
2019-04-03T09:23:49.403Z,38.40
2019-04-03T09:28:54.431Z,37.10
2019-04-03T09:33:59.194Z,37.30
2019-04-03T09:39:07.415Z,37.60
2019-04-03T09:44:12.443Z,37.80
2019-04-03T09:49:17.593Z,37.80
2019-04-03T09:54:22.837Z,37.80
2019-04-03T09:59:27.824Z,37.80
2019-04-03T10:04:33.268Z,37.10
2019-04-03T10:09:39.132Z,36.50
2019-04-03T10:14:44.212Z,36.20
2019-04-03T10:19:49.245Z,35.10
2019-04-03T10:24:54.114Z,36.90
2019-04-03T10:29:59.041Z,35.90
2019-04-03T10:35:05.115Z,35.50
2019-04-03T10:40:11.595Z,36.20
2019-04-03T10:45:17.562Z,35.50
2019-04-03T10:50:23.048Z,36.00
2019-04-03T10:55:29.346Z,35.90
2019-04-03T11:00:34.381Z,35.40
2019-04-03T11:05:39.706Z,35.00
2019-04-03T11:10:44.395Z,35.90
2019-04-03T11:15:49.401Z,36.30
2019-04-03T11:20:54.514Z,35.70
2019-04-03T11:25:59.500Z,35.70
2019-04-03T11:31:04.543Z,34.70
2019-04-03T11:36:09.343Z,34.20
2019-04-03T11:41:18.613Z,34.40
2019-04-03T11:46:20.923Z,33.90
2019-04-03T11:51:28.895Z,34.70
2019-04-03T11:56:32.577Z,34.80
2019-04-03T12:01:37.909Z,33.90
2019-04-03T12:06:43.199Z,33.80
2019-04-03T12:11:48.316Z,34.10
2019-04-03T12:16:53.018Z,33.80
2019-04-03T12:21:58.108Z,33.70
2019-04-03T12:27:03.311Z,32.90
2019-04-03T12:32:09.243Z,33.60
2019-04-03T12:37:16.450Z,32.70
2019-04-03T12:42:21.311Z,34.00
2019-04-03T12:47:28.281Z,32.30
2019-04-03T12:52:32.709Z,33.30
2019-04-03T12:57:39.184Z,32.00
2019-04-03T13:02:44.340Z,32.10
2019-04-03T13:07:49.961Z,31.60
2019-04-03T13:12:56.536Z,31.10
2019-04-03T13:18:02.559Z,32.00
2019-04-03T13:23:07.383Z,31.40
2019-04-03T13:28:12.706Z,30.80
2019-04-03T13:33:17.894Z,30.30
2019-04-03T13:38:22.903Z,30.80
2019-04-03T13:43:28.143Z,30.90
2019-04-03T13:48:33.467Z,30.00
2019-04-03T13:53:38.873Z,30.20
2019-04-03T13:58:43.806Z,30.20
2019-04-03T14:03:50.545Z,29.90
2019-04-03T14:08:56.737Z,29.60
2019-04-03T14:14:01.554Z,29.70
2019-04-03T14:19:06.534Z,29.40
2019-04-03T14:24:11.347Z,29.20
2019-04-03T14:29:16.320Z,29.90
2019-04-03T14:34:21.064Z,29.60
2019-04-03T14:39:26.508Z,29.60
2019-04-03T14:44:31.812Z,29.10
2019-04-03T14:49:36.798Z,30.60
2019-04-03T14:54:41.884Z,29.40
2019-04-03T14:59:46.615Z,29.60
2019-04-03T15:04:51.664Z,30.10
2019-04-03T15:09:59.409Z,30.20
2019-04-03T15:15:06.936Z,30.20
2019-04-03T15:20:13.303Z,30.80
2019-04-03T15:25:20.270Z,30.80
2019-04-03T15:30:25.822Z,30.00
2019-04-03T15:35:32.183Z,30.00
2019-04-03T15:40:37.513Z,31.10
2019-04-03T15:45:42.513Z,30.10
2019-04-03T15:50:47.645Z,30.60
2019-04-03T15:55:52.603Z,30.10
2019-04-03T16:00:57.380Z,30.60
2019-04-03T16:06:03.526Z,30.10
2019-04-03T16:11:09.285Z,30.40
2019-04-03T16:16:14.124Z,31.00
2019-04-03T16:21:19.902Z,30.70
2019-04-03T16:26:25.750Z,30.70
2019-04-03T16:31:30.709Z,31.20
2019-04-03T16:36:35.535Z,30.60
2019-04-03T16:41:42.483Z,31.30
2019-04-03T16:46:47.007Z,31.40
2019-04-03T16:51:51.830Z,31.00
2019-04-03T16:56:57.589Z,31.20
2019-04-03T17:02:02.317Z,31.60
2019-04-03T17:07:07.645Z,31.60
2019-04-03T17:12:13.023Z,31.80
2019-04-03T17:17:18.420Z,32.00
2019-04-03T17:22:23.593Z,32.10
2019-04-03T17:27:30.208Z,32.40
2019-04-03T17:32:35.401Z,32.60
2019-04-03T17:37:40.972Z,32.50
2019-04-03T17:42:47.029Z,32.70
2019-04-03T17:47:53.906Z,32.80
2019-04-03T17:52:58.561Z,33.10
2019-04-03T17:58:03.305Z,33.70
2019-04-03T18:03:08.044Z,33.30
2019-04-03T18:08:12.786Z,33.50
2019-04-03T18:13:17.631Z,33.70
2019-04-03T18:18:22.578Z,33.90
2019-04-03T18:23:27.322Z,33.70
2019-04-03T18:28:32.063Z,33.50
2019-04-03T18:33:37.126Z,34.20
2019-04-03T18:38:42.161Z,34.00
2019-04-03T18:43:46.913Z,34.20
2019-04-03T18:48:54.624Z,33.60
2019-04-03T18:53:58.536Z,33.60
2019-04-03T18:59:03.586Z,33.90
2019-04-03T19:04:08.635Z,34.20
2019-04-03T19:09:13.778Z,34.00
2019-04-03T19:14:26.880Z,33.90
2019-04-03T19:19:25.625Z,34.00
2019-04-03T19:24:31.598Z,34.30
2019-04-03T19:29:36.647Z,33.70
2019-04-03T19:34:41.711Z,33.80
2019-04-03T19:39:46.754Z,33.40
2019-04-03T19:44:51.796Z,33.20
2019-04-03T19:49:59.867Z,33.20
2019-04-03T19:55:03.198Z,32.70
2019-04-03T20:00:10.917Z,32.90
2019-04-03T20:05:18.569Z,32.90
2019-04-03T20:10:22.877Z,33.00
2019-04-03T20:15:28.560Z,33.00
2019-04-03T20:20:33.571Z,32.90
2019-04-03T20:25:39.866Z,33.30
2019-04-03T20:30:44.688Z,32.90
2019-04-03T20:35:50.269Z,32.90
2019-04-03T20:40:55.321Z,33.40
2019-04-03T20:46:00.370Z,33.10
2019-04-03T20:51:05.132Z,33.10
2019-04-03T20:56:09.866Z,33.00
2019-04-03T21:01:15.011Z,33.20
2019-04-03T21:06:20.462Z,32.70
2019-04-03T21:11:26.236Z,32.70
2019-04-03T21:16:33.373Z,33.50
2019-04-03T21:21:38.463Z,33.30
2019-04-03T21:26:43.215Z,33.20
2019-04-03T21:31:48.274Z,33.90
2019-04-03T21:36:53.030Z,34.30
2019-04-03T21:41:58.063Z,34.40
2019-04-03T21:47:02.882Z,34.40
2019-04-03T21:52:09.083Z,34.50
2019-04-03T21:57:14.745Z,34.70
2019-04-03T22:02:19.565Z,34.90
2019-04-03T22:07:24.538Z,35.20
2019-04-03T22:12:29.360Z,35.40
2019-04-03T22:17:34.638Z,34.90
2019-04-03T22:22:39.685Z,34.50
2019-04-03T22:27:44.736Z,34.80
2019-04-03T22:32:49.350Z,34.60
2019-04-03T22:37:54.525Z,35.10
2019-04-03T22:42:59.267Z,35.20
2019-04-03T22:48:04.012Z,34.90
2019-04-03T22:53:10.552Z,35.10
2019-04-03T22:58:15.337Z,35.30
2019-04-03T23:03:20.697Z,35.20
2019-04-03T23:08:25.435Z,35.10
2019-04-03T23:13:30.487Z,35.10
2019-04-03T23:18:36.149Z,34.90
2019-04-03T23:23:40.890Z,35.10
2019-04-03T23:28:45.635Z,35.40
2019-04-03T23:33:50.688Z,35.20
2019-04-03T23:38:56.703Z,35.30
2019-04-03T23:44:02.016Z,35.20
2019-04-03T23:49:06.751Z,35.40
2019-04-03T23:54:11.800Z,35.90
2019-04-03T23:59:16.518Z,36.00
